Keokee, Virginia
Current Conditions -  °F | °C
As of 6:55 AM on Friday 21 Nov 2014 (Local Time) from KLNP Reporting Station
Clear Clear  
Wind Chill: 14°   Ceiling: Unl
Heat Index: 21°   Visibility: 10mi
Dew Point: 16°   Wind: 6mph
Humidity: 80%   Direction: 330°NNW
Pressure: 30.32"   Gusts: NA
Location:  36.86°N, 82.9°W
Report Text: KLNP 211155Z AUTO 33005KT 10SM CLR M06/M09 A3032 RMK AO2
Loading
Personal Weather Stations






























Interactive Weather Map New forecast layout! Learn more

10-Day Weather Forecast

Advertisements
Track Severe Weather on mobile